Pemigewasset River @ Plymouth, Nh

Pemmigewasset River at Plymouth
 Total Drainage Area: 622 sq. miles 
 Drainage Area Controlled by Corps Dams: 0 sq. miles (0%) 
 Warning Flow/Stage: 9,400 cfs / 8.0 feet 
 Flood Flow/Stage: 18,280 cfs / 13.0 feet 
Date Time
(Eastern)
Stage
(ft)
Flow
(cfs)
CSM
(cfs / sq. mi.)
Water Temp.
(F)
Feb-26 01:30 am 1.14 347 .6 31.8
Feb-26 12:30 am 1.18 379 .6 31.9
Feb-25 11:30 pm 1.19 387 .6 32.0
Feb-25 10:30 pm 1.20 395 .6 32.1
Feb-25 09:30 pm 1.19 387 .6 32.1
Feb-25 08:30 pm 1.17 371 .6 32.3
Feb-25 07:30 pm 1.13 340 .6 32.6
Feb-25 06:30 pm 1.10 317 .5 32.9
Feb-25 05:30 pm 1.09 309 .5 33.2
Feb-25 04:30 pm 1.07 295 .5 33.2
Feb-25 03:30 pm 1.04 273 .4 33.0
Feb-25 02:30 pm 1.01 252 .4 32.6
Feb-25 01:30 pm 0.97 225 .4 32.3
Feb-25 12:30 pm 0.92 193 .3 32.4
Feb-25 11:30 am 0.90 181 .3 32.3
Feb-25 10:30 am 0.92 193 .3 32.2
Feb-25 09:30 am 0.96 219 .4 32.0
Feb-25 08:30 am 1.12 332 .5 31.9
Feb-25 07:30 am 1.14 347 .6 31.7
Feb-25 06:30 am 1.10 317 .5 31.7
Feb-25 05:30 am 1.11 324 .5 31.7
Feb-25 04:30 am 1.10 317 .5 31.7
Feb-25 03:30 am 1.10 317 .5 31.7
Feb-25 02:30 am 1.08 302 .5 31.6
Feb-25 01:30 am 1.06 287 .5 31.7
Report Generated February 26, 2024 02:02 am